SWA2864 KPHX-KDEN
Flight info
| Callsign | SWA2864 |
|---|---|
| Flight time | 1h 14m |
| Altitude | 35000 |
| Route | MRBIL1 JARPA CRUDD TBARR4 |
| Aircraft | B38M/M-SADE2E3GHIJ4J7P2RWZ/LB1D1 |
Departure
| Time | 2026-05-05 21:31 |
|---|---|
| Airport | Phoenix Sky Harbor International Airport (KPHX) |
Arrival
| Time | 2026-05-05 22:45 |
|---|---|
| Airport | Denver International Airport (KDEN) |
| Time | Latitude | Longitude | Altitude | Speed | Heading |
|---|---|---|---|---|---|
| 2026-05-05 20:56 | 33.43403 | -111.99494 | 1127 ft | 0 kts | 88° |
| 2026-05-05 21:22 | 33.43403 | -111.99502 | 1119 ft | 4 kts | 87° |
| 2026-05-05 21:22 | 33.43402 | -111.99534 | 1119 ft | 4 kts | 101° |
| 2026-05-05 21:22 | 33.43406 | -111.99548 | 1119 ft | 4 kts | 124° |
| 2026-05-05 21:22 | 33.43384 | -111.99533 | 1121 ft | 4 kts | 164° |
| 2026-05-05 21:23 | 33.43357 | -111.99529 | 1124 ft | 4 kts | 176° |
| 2026-05-05 21:23 | 33.43331 | -111.99528 | 1122 ft | 2 kts | 179° |
| 2026-05-05 21:23 | 33.43330 | -111.99528 | 1122 ft | 0 kts | 179° |
| 2026-05-05 21:27 | 33.43329 | -111.99528 | 1127 ft | 1 kts | 179° |
| 2026-05-05 21:27 | 33.43318 | -111.99530 | 1119 ft | 2 kts | 190° |
| 2026-05-05 21:27 | 33.43295 | -111.99537 | 1127 ft | 5 kts | 194° |
| 2026-05-05 21:28 | 33.43235 | -111.99550 | 1126 ft | 12 kts | 168° |
| 2026-05-05 21:28 | 33.43213 | -111.99452 | 1129 ft | 10 kts | 90° |
| 2026-05-05 21:28 | 33.43213 | -111.99373 | 1132 ft | 6 kts | 99° |
| 2026-05-05 21:28 | 33.43204 | -111.99355 | 1131 ft | 0 kts | 140° |
| 2026-05-05 21:29 | 33.43203 | -111.99354 | 1134 ft | 1 kts | 142° |
| 2026-05-05 21:30 | 33.43181 | -111.99346 | 1132 ft | 6 kts | 174° |
| 2026-05-05 21:30 | 33.43124 | -111.99344 | 1137 ft | 11 kts | 180° |
| 2026-05-05 21:30 | 33.43103 | -111.99396 | 1135 ft | 7 kts | 269° |
| 2026-05-05 21:30 | 33.43102 | -111.99463 | 1136 ft | 14 kts | 270° |
| 2026-05-05 21:31 | 33.43103 | -111.99871 | 1134 ft | 84 kts | 270° |
| 2026-05-05 21:31 | 33.43105 | -112.00837 | 1132 ft | 143 kts | 270° |
| 2026-05-05 21:31 | 33.43122 | -112.02148 | 1383 ft | 167 kts | 270° |
| 2026-05-05 21:31 | 33.43196 | -112.03532 | 2087 ft | 168 kts | 272° |
| 2026-05-05 21:32 | 33.43295 | -112.04972 | 2618 ft | 180 kts | 271° |
| 2026-05-05 21:32 | 33.43364 | -112.06475 | 3306 ft | 182 kts | 269° |
| 2026-05-05 21:32 | 33.43363 | -112.08030 | 3852 ft | 194 kts | 269° |
| 2026-05-05 21:32 | 33.43400 | -112.09789 | 4020 ft | 230 kts | 271° |
| 2026-05-05 21:33 | 33.43507 | -112.11732 | 4793 ft | 233 kts | 271° |
| 2026-05-05 21:33 | 33.43616 | -112.13653 | 5762 ft | 231 kts | 272° |
| 2026-05-05 21:33 | 33.43800 | -112.15569 | 6623 ft | 234 kts | 279° |
| 2026-05-05 21:33 | 33.44341 | -112.17445 | 7264 ft | 248 kts | 299° |
| 2026-05-05 21:34 | 33.45570 | -112.18919 | 8041 ft | 257 kts | 327° |
| 2026-05-05 21:34 | 33.47297 | -112.19588 | 8743 ft | 270 kts | 354° |
| 2026-05-05 21:34 | 33.48753 | -112.19586 | 9364 ft | 272 kts | 357° |
| 2026-05-05 21:35 | 33.49588 | -112.19583 | 9691 ft | 275 kts | 357° |
| 2026-05-05 21:35 | 33.51508 | -112.19581 | 10434 ft | 277 kts | 358° |
| 2026-05-05 21:35 | 33.53471 | -112.19432 | 11036 ft | 291 kts | 8° |
| 2026-05-05 21:35 | 33.55514 | -112.18854 | 11415 ft | 312 kts | 11° |
| 2026-05-05 21:36 | 33.57685 | -112.18219 | 11846 ft | 329 kts | 11° |
| 2026-05-05 21:36 | 33.59937 | -112.17547 | 12431 ft | 340 kts | 14° |
| 2026-05-05 21:36 | 33.62056 | -112.16240 | 13273 ft | 346 kts | 38° |
| 2026-05-05 21:36 | 33.63796 | -112.14188 | 13957 ft | 355 kts | 46° |
| 2026-05-05 21:37 | 33.65510 | -112.12039 | 14692 ft | 359 kts | 46° |
| 2026-05-05 21:37 | 33.67236 | -112.09859 | 15413 ft | 364 kts | 46° |
| 2026-05-05 21:37 | 33.68988 | -112.07637 | 16158 ft | 369 kts | 46° |
| 2026-05-05 21:37 | 33.70757 | -112.05385 | 16903 ft | 373 kts | 46° |
| 2026-05-05 21:38 | 33.72547 | -112.03103 | 17657 ft | 377 kts | 46° |
| 2026-05-05 21:38 | 33.74321 | -112.00841 | 18448 ft | 377 kts | 46° |
| 2026-05-05 21:38 | 33.75941 | -111.98412 | 18920 ft | 384 kts | 54° |
| 2026-05-05 21:38 | 33.77497 | -111.95894 | 19379 ft | 392 kts | 53° |
| 2026-05-05 21:39 | 33.79098 | -111.93329 | 19925 ft | 397 kts | 53° |
| 2026-05-05 21:39 | 33.80800 | -111.90631 | 20374 ft | 406 kts | 52° |
| 2026-05-05 21:39 | 33.82521 | -111.87929 | 20959 ft | 410 kts | 51° |
| 2026-05-05 21:39 | 33.84273 | -111.85198 | 21362 ft | 419 kts | 52° |
| 2026-05-05 21:40 | 33.86052 | -111.82397 | 21913 ft | 424 kts | 52° |
| 2026-05-05 21:40 | 33.87854 | -111.79562 | 22352 ft | 431 kts | 52° |
| 2026-05-05 21:40 | 33.89685 | -111.76657 | 22764 ft | 439 kts | 52° |
| 2026-05-05 21:40 | 33.91555 | -111.73712 | 23153 ft | 447 kts | 52° |
| 2026-05-05 21:41 | 33.93451 | -111.70738 | 23648 ft | 450 kts | 51° |
| 2026-05-05 21:41 | 33.95358 | -111.67830 | 23895 ft | 458 kts | 52° |
| 2026-05-05 21:41 | 33.97268 | -111.64757 | 24373 ft | 460 kts | 52° |
| 2026-05-05 21:41 | 33.99220 | -111.61695 | 24716 ft | 466 kts | 47° |
| 2026-05-05 21:42 | 34.01507 | -111.59207 | 25063 ft | 464 kts | 30° |
| 2026-05-05 21:42 | 34.04215 | -111.57054 | 25425 ft | 468 kts | 28° |
| 2026-05-05 21:42 | 34.06936 | -111.54918 | 25811 ft | 474 kts | 27° |
| 2026-05-05 21:42 | 34.09716 | -111.52761 | 26247 ft | 477 kts | 27° |
| 2026-05-05 21:43 | 34.12532 | -111.50592 | 26569 ft | 483 kts | 27° |
| 2026-05-05 21:43 | 34.14324 | -111.49211 | 26859 ft | 485 kts | 27° |
| 2026-05-05 21:43 | 34.17007 | -111.47149 | 27134 ft | 490 kts | 27° |
| 2026-05-05 21:43 | 34.19782 | -111.45010 | 27461 ft | 494 kts | 27° |
| 2026-05-05 21:44 | 34.22611 | -111.42832 | 27880 ft | 497 kts | 27° |
| 2026-05-05 21:44 | 34.25539 | -111.40575 | 28120 ft | 504 kts | 27° |
| 2026-05-05 21:44 | 34.28503 | -111.38287 | 28525 ft | 506 kts | 27° |
| 2026-05-05 21:44 | 34.30472 | -111.36767 | 28739 ft | 509 kts | 27° |
| 2026-05-05 21:45 | 34.33473 | -111.34447 | 29043 ft | 515 kts | 27° |
| 2026-05-05 21:45 | 34.37478 | -111.31349 | 29635 ft | 517 kts | 27° |
| 2026-05-05 21:45 | 34.40506 | -111.29004 | 29857 ft | 523 kts | 27° |
| 2026-05-05 21:45 | 34.43586 | -111.26617 | 30158 ft | 526 kts | 27° |
| 2026-05-05 21:46 | 34.46675 | -111.24221 | 30386 ft | 529 kts | 27° |
| 2026-05-05 21:46 | 34.48763 | -111.22600 | 30600 ft | 531 kts | 27° |
| 2026-05-05 21:46 | 34.51880 | -111.20179 | 30946 ft | 532 kts | 27° |
| 2026-05-05 21:46 | 34.54999 | -111.17753 | 31265 ft | 533 kts | 27° |
| 2026-05-05 21:47 | 34.58127 | -111.15319 | 31593 ft | 535 kts | 27° |
| 2026-05-05 21:47 | 34.61243 | -111.12880 | 31843 ft | 538 kts | 29° |
| 2026-05-05 21:47 | 34.64125 | -111.09932 | 32279 ft | 543 kts | 43° |
| 2026-05-05 21:47 | 34.66785 | -111.06684 | 32654 ft | 543 kts | 41° |
| 2026-05-05 21:48 | 34.69448 | -111.03504 | 32835 ft | 547 kts | 41° |
| 2026-05-05 21:48 | 34.72156 | -111.00236 | 33126 ft | 549 kts | 41° |
| 2026-05-05 21:48 | 34.74866 | -110.96956 | 33390 ft | 551 kts | 41° |
| 2026-05-05 21:48 | 34.77590 | -110.93655 | 33693 ft | 553 kts | 41° |
| 2026-05-05 21:49 | 34.80308 | -110.90358 | 33972 ft | 555 kts | 41° |
| 2026-05-05 21:49 | 34.83033 | -110.87048 | 34285 ft | 554 kts | 41° |
| 2026-05-05 21:49 | 34.85756 | -110.83738 | 34665 ft | 552 kts | 42° |
| 2026-05-05 21:49 | 34.88471 | -110.80435 | 34903 ft | 552 kts | 42° |
| 2026-05-05 21:50 | 34.93885 | -110.73837 | 34968 ft | 548 kts | 42° |
| 2026-05-05 21:50 | 34.99249 | -110.67289 | 34940 ft | 546 kts | 42° |
| 2026-05-05 21:51 | 35.04578 | -110.60768 | 34813 ft | 547 kts | 42° |
| 2026-05-05 21:51 | 35.09783 | -110.54389 | 34812 ft | 546 kts | 42° |
| 2026-05-05 21:52 | 35.17360 | -110.45081 | 34801 ft | 547 kts | 42° |
| 2026-05-05 21:53 | 35.22101 | -110.39241 | 34837 ft | 548 kts | 42° |
| 2026-05-05 21:53 | 35.27443 | -110.32650 | 34864 ft | 542 kts | 43° |
| 2026-05-05 21:54 | 35.32692 | -110.26162 | 34852 ft | 541 kts | 43° |
| 2026-05-05 21:54 | 35.37990 | -110.19600 | 34856 ft | 542 kts | 43° |
| 2026-05-05 21:55 | 35.43226 | -110.13101 | 34832 ft | 542 kts | 43° |
| 2026-05-05 21:55 | 35.47958 | -110.06855 | 34762 ft | 545 kts | 50° |
| 2026-05-05 21:55 | 35.50503 | -110.03462 | 34854 ft | 543 kts | 37° |
| 2026-05-05 21:56 | 35.53330 | -110.00381 | 34925 ft | 545 kts | 41° |
| 2026-05-05 21:56 | 35.58708 | -109.93917 | 34896 ft | 537 kts | 44° |
| 2026-05-05 21:57 | 35.63893 | -109.87335 | 34873 ft | 539 kts | 43° |
| 2026-05-05 21:57 | 35.69123 | -109.80777 | 34872 ft | 538 kts | 43° |
| 2026-05-05 21:58 | 35.74700 | -109.74661 | 34887 ft | 540 kts | 38° |
| 2026-05-05 21:58 | 35.80315 | -109.68566 | 34864 ft | 540 kts | 38° |
| 2026-05-05 21:59 | 35.85828 | -109.62547 | 34867 ft | 537 kts | 39° |
| 2026-05-05 21:59 | 35.91359 | -109.56472 | 34872 ft | 535 kts | 39° |
| 2026-05-05 22:00 | 35.96912 | -109.50376 | 34865 ft | 534 kts | 39° |
| 2026-05-05 22:00 | 36.02469 | -109.44277 | 34835 ft | 535 kts | 38° |
| 2026-05-05 22:01 | 36.08053 | -109.38197 | 34854 ft | 542 kts | 39° |
| 2026-05-05 22:01 | 36.13629 | -109.31954 | 34902 ft | 538 kts | 40° |
| 2026-05-05 22:02 | 36.19166 | -109.25801 | 34869 ft | 533 kts | 39° |
| 2026-05-05 22:02 | 36.24680 | -109.19701 | 34824 ft | 533 kts | 39° |
| 2026-05-05 22:03 | 36.30207 | -109.13559 | 34843 ft | 534 kts | 39° |
| 2026-05-05 22:03 | 36.35760 | -109.07421 | 34804 ft | 538 kts | 37° |
| 2026-05-05 22:04 | 36.41176 | -109.01032 | 34724 ft | 543 kts | 50° |
| 2026-05-05 22:04 | 36.43490 | -108.97355 | 34841 ft | 542 kts | 56° |
| 2026-05-05 22:04 | 36.45649 | -108.93563 | 34852 ft | 533 kts | 48° |
| 2026-05-05 22:04 | 36.48302 | -108.90365 | 34814 ft | 531 kts | 33° |
| 2026-05-05 22:05 | 36.51224 | -108.87580 | 34786 ft | 532 kts | 39° |
| 2026-05-05 22:05 | 36.56596 | -108.81261 | 34769 ft | 534 kts | 39° |
| 2026-05-05 22:06 | 36.62028 | -108.75223 | 34748 ft | 535 kts | 38° |
| 2026-05-05 22:06 | 36.67585 | -108.69092 | 34764 ft | 538 kts | 38° |
| 2026-05-05 22:07 | 36.73170 | -108.62919 | 34782 ft | 532 kts | 38° |
| 2026-05-05 22:07 | 36.78645 | -108.56858 | 34794 ft | 530 kts | 38° |
| 2026-05-05 22:08 | 36.84145 | -108.50754 | 34802 ft | 530 kts | 38° |
| 2026-05-05 22:08 | 36.89629 | -108.44656 | 34808 ft | 530 kts | 38° |
| 2026-05-05 22:09 | 36.95099 | -108.38564 | 34796 ft | 532 kts | 38° |
| 2026-05-05 22:09 | 37.00606 | -108.32415 | 34794 ft | 535 kts | 38° |
| 2026-05-05 22:10 | 37.06154 | -108.26209 | 34762 ft | 534 kts | 38° |
| 2026-05-05 22:10 | 37.11691 | -108.20002 | 34753 ft | 534 kts | 38° |
| 2026-05-05 22:11 | 37.17212 | -108.13801 | 34748 ft | 534 kts | 38° |
| 2026-05-05 22:11 | 37.22739 | -108.07582 | 34753 ft | 534 kts | 38° |
| 2026-05-05 22:12 | 37.28256 | -108.01359 | 34767 ft | 527 kts | 38° |
| 2026-05-05 22:12 | 37.33666 | -107.95245 | 34753 ft | 523 kts | 38° |
| 2026-05-05 22:13 | 37.38811 | -107.89419 | 34774 ft | 523 kts | 38° |
| 2026-05-05 22:13 | 37.44134 | -107.83381 | 34765 ft | 522 kts | 38° |
| 2026-05-05 22:14 | 37.49355 | -107.77446 | 34774 ft | 522 kts | 38° |
| 2026-05-05 22:14 | 37.54655 | -107.71409 | 34790 ft | 524 kts | 39° |
| 2026-05-05 22:15 | 37.59470 | -107.64891 | 34755 ft | 512 kts | 40° |
| 2026-05-05 22:15 | 37.64858 | -107.59262 | 34745 ft | 509 kts | 39° |
| 2026-05-05 22:16 | 37.70158 | -107.53362 | 34729 ft | 509 kts | 36° |
| 2026-05-05 22:16 | 37.75481 | -107.47483 | 34779 ft | 512 kts | 39° |
| 2026-05-05 22:17 | 37.80669 | -107.41334 | 34772 ft | 511 kts | 39° |
| 2026-05-05 22:17 | 37.85785 | -107.35182 | 34793 ft | 503 kts | 42° |
| 2026-05-05 22:17 | 37.87927 | -107.31704 | 34669 ft | 501 kts | 56° |
| 2026-05-05 22:18 | 37.89943 | -107.28125 | 34727 ft | 501 kts | 43° |
| 2026-05-05 22:18 | 37.92563 | -107.25319 | 34752 ft | 490 kts | 30° |
| 2026-05-05 22:18 | 37.95277 | -107.22632 | 34706 ft | 499 kts | 37° |
| 2026-05-05 22:19 | 38.00443 | -107.16938 | 34751 ft | 501 kts | 37° |
| 2026-05-05 22:19 | 38.05675 | -107.11129 | 34719 ft | 500 kts | 37° |
| 2026-05-05 22:20 | 38.10878 | -107.05316 | 34736 ft | 497 kts | 38° |
| 2026-05-05 22:20 | 38.16095 | -106.99758 | 34673 ft | 502 kts | 42° |
| 2026-05-05 22:20 | 38.18259 | -106.96224 | 34715 ft | 511 kts | 55° |
| 2026-05-05 22:21 | 38.20348 | -106.92568 | 34690 ft | 515 kts | 47° |
| 2026-05-05 22:21 | 38.24946 | -106.85529 | 34690 ft | 527 kts | 47° |
| 2026-05-05 22:22 | 38.29695 | -106.78292 | 34692 ft | 538 kts | 47° |
| 2026-05-05 22:22 | 38.34509 | -106.70947 | 34691 ft | 541 kts | 48° |
| 2026-05-05 22:23 | 38.39319 | -106.63547 | 34632 ft | 542 kts | 48° |
| 2026-05-05 22:23 | 38.44085 | -106.56328 | 34633 ft | 535 kts | 45° |
| 2026-05-05 22:24 | 38.48828 | -106.49020 | 34685 ft | 536 kts | 48° |
| 2026-05-05 22:24 | 38.53561 | -106.41712 | 34696 ft | 525 kts | 48° |
| 2026-05-05 22:24 | 38.55854 | -106.38173 | 34714 ft | 509 kts | 47° |
| 2026-05-05 22:25 | 38.58072 | -106.34750 | 34755 ft | 499 kts | 48° |
| 2026-05-05 22:25 | 38.62486 | -106.27926 | 34751 ft | 498 kts | 47° |
| 2026-05-05 22:26 | 38.66934 | -106.21100 | 34603 ft | 498 kts | 47° |
| 2026-05-05 22:26 | 38.69098 | -106.17804 | 34377 ft | 492 kts | 47° |
| 2026-05-05 22:26 | 38.71312 | -106.14400 | 33943 ft | 504 kts | 47° |
| 2026-05-05 22:26 | 38.73559 | -106.10965 | 33203 ft | 509 kts | 47° |
| 2026-05-05 22:27 | 38.75802 | -106.07468 | 32480 ft | 508 kts | 49° |
| 2026-05-05 22:27 | 38.78053 | -106.04003 | 31870 ft | 503 kts | 47° |
| 2026-05-05 22:27 | 38.80309 | -106.00586 | 31249 ft | 501 kts | 47° |
| 2026-05-05 22:27 | 38.82548 | -105.97162 | 30482 ft | 501 kts | 47° |
| 2026-05-05 22:28 | 38.84550 | -105.94075 | 29808 ft | 502 kts | 47° |
| 2026-05-05 22:28 | 38.86227 | -105.91494 | 29000 ft | 499 kts | 47° |
| 2026-05-05 22:28 | 38.88277 | -105.88325 | 28336 ft | 497 kts | 48° |
| 2026-05-05 22:28 | 38.90467 | -105.84915 | 27639 ft | 494 kts | 48° |
| 2026-05-05 22:29 | 38.92611 | -105.81577 | 27100 ft | 488 kts | 48° |
| 2026-05-05 22:29 | 38.94764 | -105.78222 | 26503 ft | 484 kts | 48° |
| 2026-05-05 22:29 | 38.96895 | -105.74900 | 25894 ft | 481 kts | 48° |
| 2026-05-05 22:29 | 38.99017 | -105.71585 | 25244 ft | 479 kts | 48° |
| 2026-05-05 22:30 | 39.01129 | -105.68287 | 24630 ft | 475 kts | 48° |
| 2026-05-05 22:30 | 39.03227 | -105.65031 | 24095 ft | 471 kts | 48° |
| 2026-05-05 22:30 | 39.05289 | -105.61829 | 23722 ft | 465 kts | 48° |
| 2026-05-05 22:30 | 39.07337 | -105.58641 | 23293 ft | 461 kts | 48° |
| 2026-05-05 22:31 | 39.09260 | -105.55648 | 22767 ft | 457 kts | 48° |
| 2026-05-05 22:31 | 39.11275 | -105.52506 | 22259 ft | 452 kts | 48° |
| 2026-05-05 22:31 | 39.13265 | -105.49401 | 21852 ft | 446 kts | 48° |
| 2026-05-05 22:31 | 39.15224 | -105.46326 | 21361 ft | 442 kts | 48° |
| 2026-05-05 22:32 | 39.17153 | -105.43261 | 20850 ft | 439 kts | 48° |
| 2026-05-05 22:32 | 39.19070 | -105.40219 | 20399 ft | 435 kts | 48° |
| 2026-05-05 22:32 | 39.20960 | -105.37219 | 19972 ft | 431 kts | 48° |
| 2026-05-05 22:32 | 39.22839 | -105.34233 | 19559 ft | 428 kts | 48° |
| 2026-05-05 22:33 | 39.24080 | -105.32259 | 19248 ft | 426 kts | 49° |
| 2026-05-05 22:33 | 39.25936 | -105.29302 | 18788 ft | 424 kts | 49° |
| 2026-05-05 22:33 | 39.28185 | -105.25192 | 18063 ft | 427 kts | 64° |
| 2026-05-05 22:33 | 39.28820 | -105.22785 | 17718 ft | 427 kts | 78° |
| 2026-05-05 22:34 | 39.29247 | -105.19015 | 17315 ft | 422 kts | 82° |
| 2026-05-05 22:34 | 39.29673 | -105.15273 | 16813 ft | 420 kts | 82° |
| 2026-05-05 22:34 | 39.30087 | -105.11714 | 16349 ft | 418 kts | 82° |
| 2026-05-05 22:34 | 39.30519 | -105.08030 | 15884 ft | 415 kts | 82° |
| 2026-05-05 22:35 | 39.30899 | -105.04780 | 15478 ft | 413 kts | 82° |
| 2026-05-05 22:35 | 39.31325 | -105.01151 | 14981 ft | 411 kts | 81° |
| 2026-05-05 22:35 | 39.31949 | -104.97561 | 14609 ft | 405 kts | 76° |
| 2026-05-05 22:35 | 39.32603 | -104.94079 | 14423 ft | 394 kts | 77° |
| 2026-05-05 22:36 | 39.33227 | -104.90675 | 14126 ft | 388 kts | 78° |
| 2026-05-05 22:36 | 39.33868 | -104.87333 | 13917 ft | 375 kts | 73° |
| 2026-05-05 22:36 | 39.34666 | -104.84189 | 13656 ft | 361 kts | 73° |
| 2026-05-05 22:36 | 39.35434 | -104.81135 | 13193 ft | 352 kts | 73° |
| 2026-05-05 22:37 | 39.36181 | -104.78250 | 12983 ft | 335 kts | 70° |
| 2026-05-05 22:37 | 39.37002 | -104.75540 | 12830 ft | 319 kts | 70° |
| 2026-05-05 22:37 | 39.37789 | -104.72901 | 12635 ft | 311 kts | 70° |
| 2026-05-05 22:37 | 39.38652 | -104.70372 | 12453 ft | 305 kts | 56° |
| 2026-05-05 22:38 | 39.40159 | -104.68487 | 12305 ft | 293 kts | 30° |
| 2026-05-05 22:38 | 39.41836 | -104.67216 | 12451 ft | 276 kts | 26° |
| 2026-05-05 22:38 | 39.43631 | -104.66514 | 12342 ft | 268 kts | 2° |
| 2026-05-05 22:38 | 39.45486 | -104.66452 | 12263 ft | 267 kts | 356° |
| 2026-05-05 22:39 | 39.47299 | -104.66460 | 12134 ft | 266 kts | 357° |
| 2026-05-05 22:39 | 39.49149 | -104.66452 | 11990 ft | 266 kts | 357° |
| 2026-05-05 22:39 | 39.51010 | -104.66434 | 11654 ft | 268 kts | 358° |
| 2026-05-05 22:39 | 39.52876 | -104.66411 | 11319 ft | 269 kts | 359° |
| 2026-05-05 22:40 | 39.54745 | -104.66387 | 11041 ft | 264 kts | 359° |
| 2026-05-05 22:40 | 39.56530 | -104.66367 | 10706 ft | 259 kts | 359° |
| 2026-05-05 22:40 | 39.58315 | -104.66343 | 10361 ft | 254 kts | 360° |
| 2026-05-05 22:40 | 39.60057 | -104.66326 | 10027 ft | 250 kts | 1° |
| 2026-05-05 22:41 | 39.61785 | -104.66307 | 9693 ft | 246 kts | 1° |
| 2026-05-05 22:41 | 39.63484 | -104.66287 | 9347 ft | 242 kts | 2° |
| 2026-05-05 22:41 | 39.65149 | -104.66268 | 8990 ft | 238 kts | 2° |
| 2026-05-05 22:41 | 39.66792 | -104.66249 | 8663 ft | 233 kts | 2° |
| 2026-05-05 22:42 | 39.68395 | -104.66229 | 8342 ft | 228 kts | 3° |
| 2026-05-05 22:42 | 39.69916 | -104.66210 | 8065 ft | 205 kts | 4° |
| 2026-05-05 22:42 | 39.71263 | -104.66198 | 7814 ft | 181 kts | 4° |
| 2026-05-05 22:42 | 39.72448 | -104.66185 | 7570 ft | 163 kts | 5° |
| 2026-05-05 22:43 | 39.73564 | -104.66166 | 7356 ft | 159 kts | 4° |
| 2026-05-05 22:43 | 39.74664 | -104.66157 | 7131 ft | 157 kts | 4° |
| 2026-05-05 22:43 | 39.75749 | -104.66142 | 6928 ft | 155 kts | 6° |
| 2026-05-05 22:43 | 39.76815 | -104.66134 | 6765 ft | 153 kts | 6° |
| 2026-05-05 22:44 | 39.77871 | -104.66116 | 6563 ft | 152 kts | 5° |
| 2026-05-05 22:44 | 39.78921 | -104.66101 | 6330 ft | 149 kts | 5° |
| 2026-05-05 22:44 | 39.79947 | -104.66085 | 6081 ft | 146 kts | 3° |
| 2026-05-05 22:44 | 39.80941 | -104.66071 | 5900 ft | 145 kts | 3° |
| 2026-05-05 22:45 | 39.81960 | -104.66066 | 5653 ft | 142 kts | 2° |
| 2026-05-05 22:45 | 39.82917 | -104.66055 | 5478 ft | 134 kts | 2° |
| 2026-05-05 22:45 | 39.83755 | -104.66045 | 5424 ft | 97 kts | 1° |
| 2026-05-05 22:45 | 39.84226 | -104.66038 | 5413 ft | 44 kts | 0° |
| 2026-05-05 22:46 | 39.84536 | -104.66035 | 5405 ft | 43 kts | 0° |
| 2026-05-05 22:46 | 39.84771 | -104.66072 | 5410 ft | 25 kts | 342° |
| 2026-05-05 22:46 | 39.84928 | -104.66173 | 5399 ft | 26 kts | 330° |
| 2026-05-05 22:46 | 39.85110 | -104.66242 | 5400 ft | 29 kts | 0° |
| 2026-05-05 22:47 | 39.85320 | -104.66240 | 5394 ft | 29 kts | 1° |
| 2026-05-05 22:47 | 39.85503 | -104.66238 | 5395 ft | 24 kts | 0° |
| 2026-05-05 22:47 | 39.85664 | -104.66236 | 5392 ft | 22 kts | 0° |
| 2026-05-05 22:47 | 39.85813 | -104.66233 | 5390 ft | 20 kts | 1° |
| 2026-05-05 22:48 | 39.85942 | -104.66232 | 5390 ft | 17 kts | 0° |
| 2026-05-05 22:48 | 39.86051 | -104.66230 | 5389 ft | 16 kts | 0° |
| 2026-05-05 22:48 | 39.86186 | -104.66229 | 5384 ft | 23 kts | 0° |
| 2026-05-05 22:48 | 39.86352 | -104.66227 | 5384 ft | 24 kts | 0° |
| 2026-05-05 22:49 | 39.86492 | -104.66251 | 5383 ft | 16 kts | 308° |
| 2026-05-05 22:49 | 39.86502 | -104.66386 | 5378 ft | 14 kts | 271° |
| 2026-05-05 22:49 | 39.86499 | -104.66501 | 5379 ft | 12 kts | 257° |
| 2026-05-05 22:49 | 39.86470 | -104.66622 | 5379 ft | 16 kts | 265° |
| 2026-05-05 22:50 | 39.86469 | -104.66789 | 5378 ft | 20 kts | 270° |
| 2026-05-05 22:50 | 39.86470 | -104.66990 | 5378 ft | 24 kts | 271° |
| 2026-05-05 22:50 | 39.86473 | -104.67218 | 5379 ft | 25 kts | 270° |
| 2026-05-05 22:50 | 39.86473 | -104.67396 | 5379 ft | 10 kts | 270° |
| 2026-05-05 22:51 | 39.86474 | -104.67478 | 5379 ft | 8 kts | 270° |
| 2026-05-05 22:51 | 39.86469 | -104.67536 | 5379 ft | 6 kts | 245° |
| 2026-05-05 22:51 | 39.86447 | -104.67599 | 5378 ft | 9 kts | 244° |
| 2026-05-05 22:51 | 39.86431 | -104.67660 | 5378 ft | 5 kts | 247° |
| 2026-05-05 22:52 | 39.86414 | -104.67681 | 5378 ft | 6 kts | 204° |